Time;durP1;ratioP1;P1;durP2;ratioP2;P2;SDS_P1;SDS_P2;PMS_P1;PMS_P2;Temp;Humidity;BMP_temperature;BMP_pressure;BME280_temperature;BME280_humidity;BME280_pressure;Samples;Min_cycle;Max_cycle;Signal;HPM_P1;HPM_P2
2022/11/27 00:00:42;;;;;;;89.25;42.65;;;;;;;2.84;71.34;96192.53;5032807;28;20044;-77
2022/11/27 00:03:07;;;;;;;97.00;43.70;;;;;;;2.34;71.16;96117.97;5052947;28;20063;-76
2022/11/27 00:05:33;;;;;;;90.10;43.08;;;;;;;2.66;71.90;96174.81;5052881;28;20048;-77
2022/11/27 00:07:58;;;;;;;95.47;44.63;;;;;;;2.79;71.77;96194.16;5035262;28;20047;-77
2022/11/27 00:10:24;;;;;;;100.07;46.35;;;;;;;2.26;71.39;96112.91;5034888;28;20500;-77
2022/11/27 00:12:49;;;;;;;104.85;47.30;;;;;;;2.71;71.73;96187.28;5053500;28;20044;-77
2022/11/27 00:15:15;;;;;;;104.45;46.75;;;;;;;2.82;71.58;96202.44;5034582;28;20041;-78
2022/11/27 00:17:40;;;;;;;110.32;51.55;;;;;;;2.36;71.63;96130.84;5035288;28;20041;-77
2022/11/27 00:20:06;;;;;;;114.55;52.00;;;;;;;2.64;71.82;96179.44;5053213;28;20419;-77
2022/11/27 00:22:32;;;;;;;113.78;52.83;;;;;;;2.22;72.16;96136.03;5052668;28;20051;-77
2022/11/27 00:24:57;;;;;;;114.32;50.75;;;;;;;2.72;72.08;96207.25;5053012;28;20461;-77
2022/11/27 00:27:23;;;;;;;125.82;54.92;;;;;;;2.49;72.69;96204.19;5052709;28;20511;-77
2022/11/27 00:29:49;;;;;;;127.55;53.03;;;;;;;2.53;72.54;96208.00;5053098;28;20124;-77
2022/11/27 00:32:14;;;;;;;114.70;52.67;;;;;;;2.44;72.74;96206.59;5053163;28;20119;-77
2022/11/27 00:34:40;;;;;;;118.30;51.97;;;;;;;1.66;73.88;96111.13;5052674;28;20053;-77
2022/11/27 00:37:06;;;;;;;125.78;55.97;;;;;;;1.94;73.34;96149.25;5053066;28;20064;-77
2022/11/27 00:39:32;;;;;;;115.20;51.65;;;;;;;2.07;73.33;96172.03;5052747;28;20518;-78
2022/11/27 00:41:57;;;;;;;120.22;52.08;;;;;;;2.39;73.12;96204.56;5052739;28;20098;-78
2022/11/27 00:44:22;;;;;;;121.78;54.90;;;;;;;1.79;73.48;96153.00;5052650;28;20057;-77
2022/11/27 00:46:48;;;;;;;114.47;53.30;;;;;;;2.24;73.74;96222.22;5050619;28;20048;-77
2022/11/27 00:49:14;;;;;;;131.10;57.95;;;;;;;2.14;73.29;96178.09;5052925;28;20621;-77
2022/11/27 00:51:40;;;;;;;120.22;55.75;;;;;;;2.09;73.19;96156.13;5052538;28;20045;-78
2022/11/27 00:54:06;;;;;;;130.82;55.78;;;;;;;1.78;72.82;96114.78;5052262;28;20041;-77
2022/11/27 00:56:35;;;;;;;115.28;51.08;;;;;;;1.94;73.28;96146.63;5034059;28;20045;-77
2022/11/27 00:59:00;;;;;;;114.50;52.03;;;;;;;2.46;72.96;96215.84;5052573;28;20396;-77
2022/11/27 01:01:29;;;;;;;110.60;51.95;;;;;;;2.46;72.67;96209.81;5052489;28;20045;-76
2022/11/27 01:03:56;;;;;;;101.38;48.22;;;;;;;2.50;72.89;96214.47;5052006;28;20048;-76
2022/11/27 01:06:23;;;;;;;104.25;48.03;;;;;;;2.41;72.57;96192.06;5052476;28;20090;-76
2022/11/27 01:08:48;;;;;;;95.18;45.80;;;;;;;2.04;72.74;96133.19;5052578;28;20036;-76
2022/11/27 01:11:16;;;;;;;104.72;47.75;;;;;;;1.96;72.79;96128.13;5052790;28;20052;-76
2022/11/27 01:13:42;;;;;;;104.78;48.10;;;;;;;2.33;72.56;96169.50;5033101;28;20535;-76
2022/11/27 01:16:12;;;;;;;103.07;48.30;;;;;;;2.09;73.34;96153.53;5051244;28;20048;-76
2022/11/27 01:18:39;;;;;;;105.22;46.90;;;;;;;2.41;73.28;96192.06;5034406;28;20447;-76
2022/11/27 01:21:05;;;;;;;106.45;46.95;;;;;;;1.96;73.03;96109.00;5034477;28;20032;-76
2022/11/27 01:23:31;;;;;;;104.85;46.83;;;;;;;2.28;73.51;96186.81;5052323;28;20043;-76
2022/11/27 01:26:00;;;;;;;91.63;44.80;;;;;;;1.73;74.14;96125.84;5052313;28;20037;-76
2022/11/27 01:28:25;;;;;;;98.70;44.53;;;;;;;2.42;73.34;96190.25;5049925;28;20051;-76
2022/11/27 01:30:51;;;;;;;88.32;39.42;;;;;;;1.71;73.73;96111.34;5051953;28;20045;-75
2022/11/27 01:33:17;;;;;;;80.28;37.75;;;;;;;1.89;73.49;96122.06;5052392;28;20553;-76
2022/11/27 01:35:42;;;;;;;72.88;35.78;;;;;;;2.32;73.47;96191.44;5051989;28;20045;-76
2022/11/27 01:38:08;;;;;;;72.55;34.10;;;;;;;2.23;73.15;96165.63;5033508;28;20032;-76
2022/11/27 01:40:33;;;;;;;61.63;30.95;;;;;;;2.10;73.19;96160.38;5051909;28;20190;-76
2022/11/27 01:42:59;;;;;;;57.17;28.98;;;;;;;1.92;72.96;96121.66;5033898;28;20492;-76
2022/11/27 01:45:24;;;;;;;62.60;30.40;;;;;;;2.00;73.00;96112.84;5051698;28;20037;-75
2022/11/27 01:47:56;;;;;;;60.45;29.02;;;;;;;2.58;72.05;96180.25;5051864;28;20037;-76
2022/11/27 01:50:33;;;;;;;57.80;27.60;;;;;;;2.57;72.47;96177.81;5033719;28;20520;-76
2022/11/27 01:53:04;;;;;;;60.83;27.27;;;;;;;2.07;72.47;96098.75;5051546;28;20037;-76
2022/11/27 01:55:33;;;;;;;55.22;29.23;;;;;;;2.54;72.39;96178.19;5051947;28;20480;-76
2022/11/27 01:58:05;;;;;;;63.05;30.40;;;;;;;2.00;72.91;96084.88;5033438;28;20492;-75
2022/11/27 02:00:31;;;;;;;71.10;34.08;;;;;;;1.72;73.19;96043.16;5051856;28;20036;-76
2022/11/27 02:02:56;;;;;;;72.22;33.47;;;;;;;2.53;73.64;96180.00;5051210;28;20048;-76
2022/11/27 02:05:27;;;;;;;71.85;33.35;;;;;;;2.23;73.63;96123.75;5033659;28;20121;-76
2022/11/27 02:07:53;;;;;;;68.30;32.08;;;;;;;1.39;73.76;95990.75;5051498;28;20480;-76
2022/11/27 02:10:19;;;;;;;64.28;32.17;;;;;;;2.45;73.43;96140.09;5033497;28;20128;-76
2022/11/27 02:12:59;;;;;;;64.82;31.50;;;;;;;2.23;74.99;96142.09;5033342;28;20583;-75
2022/11/27 02:15:49;;;;;;;66.85;31.88;;;;;;;2.46;74.63;96176.56;5036782;28;20127;-75
2022/11/27 02:18:32;;;;;;;68.53;31.88;;;;;;;2.27;75.06;96177.34;5032618;28;20106;-75
2022/11/27 02:21:24;;;;;;;75.78;34.15;;;;;;;2.41;75.56;96178.97;5050850;28;20522;-75
2022/11/27 02:24:24;;;;;;;65.05;32.03;;;;;;;2.53;74.66;96184.44;5050659;28;20056;-75
2022/11/27 02:27:34;;;;;;;67.47;33.00;;;;;;;2.61;74.51;96184.25;5047708;28;20063;-75
2022/11/27 02:30:03;;;;;;;73.57;33.08;;;;;;;2.68;74.45;96180.63;5050782;28;20040;-75
2022/11/27 02:32:36;;;;;;;74.07;32.53;;;;;;;2.74;73.94;96186.09;5050924;28;20491;-75
2022/11/27 02:35:34;;;;;;;73.53;33.13;;;;;;;2.25;74.31;96106.88;5032898;28;20037;-75
2022/11/27 02:38:24;;;;;;;68.95;33.67;;;;;;;2.84;73.85;96189.91;5042273;28;20529;-75
2022/11/27 02:40:56;;;;;;;68.53;32.25;;;;;;;2.72;74.15;96188.91;5051097;28;20045;-75
2022/11/27 02:43:28;;;;;;;65.97;30.45;;;;;;;2.74;74.39;96191.34;5032257;28;20045;-75
2022/11/27 02:45:55;;;;;;;69.75;32.42;;;;;;;2.72;74.28;96165.34;5050708;28;20052;-75
2022/11/27 02:48:24;;;;;;;65.10;30.88;;;;;;;2.30;73.55;96093.16;5050653;28;20045;-75
2022/11/27 02:50:51;;;;;;;69.43;31.05;;;;;;;2.12;74.27;96088.53;5032307;28;20078;-75
2022/11/27 02:53:30;;;;;;;67.20;31.13;;;;;;;2.85;73.92;96188.13;5032719;28;20045;-74
2022/11/27 02:55:57;;;;;;;74.05;30.17;;;;;;;2.55;74.18;96145.78;5050102;28;20045;-75
2022/11/27 02:58:26;;;;;;;64.90;28.58;;;;;;;2.60;74.86;96154.63;5049671;28;20134;-75
2022/11/27 03:00:53;;;;;;;68.57;31.45;;;;;;;2.83;74.93;96192.75;5031871;28;20432;-75
2022/11/27 03:03:26;;;;;;;64.75;29.35;;;;;;;2.91;74.74;96182.88;5050119;28;20045;-75
2022/11/27 03:05:56;;;;;;;65.55;31.75;;;;;;;2.87;74.39;96176.44;5050141;28;20060;-75
2022/11/27 03:08:28;;;;;;;66.68;31.15;;;;;;;3.03;74.13;96190.94;5032000;28;20094;-75
2022/11/27 03:11:09;;;;;;;68.60;32.28;;;;;;;2.97;74.33;96191.75;5031287;28;20052;-75
2022/11/27 03:13:38;;;;;;;66.90;31.00;;;;;;;3.03;73.87;96194.38;5050179;28;20797;-75
2022/11/27 03:16:16;;;;;;;73.90;33.88;;;;;;;2.95;74.21;96202.44;5050139;28;20511;-75
2022/11/27 03:19:01;;;;;;;72.85;34.50;;;;;;;2.96;74.21;96200.63;5049848;28;20036;-75
2022/11/27 03:21:35;;;;;;;67.95;29.98;;;;;;;2.38;74.32;96100.84;5015623;28;20033;-76
2022/11/27 03:24:01;;;;;;;69.00;32.53;;;;;;;2.95;74.35;96210.31;5049279;28;20507;-76
2022/11/27 03:26:27;;;;;;;67.82;31.88;;;;;;;2.51;74.33;96121.81;5049586;28;20171;-76
2022/11/27 03:28:54;;;;;;;68.20;30.85;;;;;;;2.62;74.70;96155.25;5049538;28;20033;-75
2022/11/27 03:31:22;;;;;;;70.93;32.45;;;;;;;2.55;74.57;96124.81;5049059;28;20541;-76
2022/11/27 03:33:48;;;;;;;68.10;33.40;;;;;;;2.62;74.28;96131.69;5049771;28;20118;-76
2022/11/27 03:36:17;;;;;;;67.65;30.88;;;;;;;2.93;75.02;96196.59;5030624;28;20045;-75
2022/11/27 03:38:45;;;;;;;76.78;35.63;;;;;;;2.45;75.29;96116.53;5031640;28;20037;-76
2022/11/27 03:41:34;;;;;;;71.45;33.83;;;;;;;2.67;75.07;96154.66;5031143;28;20516;-75
2022/11/27 03:44:11;;;;;;;70.43;32.03;;;;;;;3.00;74.83;96194.78;5049559;28;20045;-75
2022/11/27 03:46:40;;;;;;;68.25;31.52;;;;;;;2.93;74.51;96186.09;5039207;28;20033;-76
2022/11/27 03:49:20;;;;;;;67.25;32.80;;;;;;;2.55;75.01;96137.91;5049516;28;20040;-76
2022/11/27 03:52:07;;;;;;;71.75;33.58;;;;;;;2.43;75.40;96113.34;5049409;28;20094;-76
2022/11/27 03:54:38;;;;;;;69.95;31.73;;;;;;;3.06;74.99;96188.72;5049071;28;20075;-76
2022/11/27 03:57:36;;;;;;;72.35;34.10;;;;;;;2.95;75.03;96189.34;5049271;28;20631;-75
2022/11/27 04:00:07;;;;;;;72.80;33.63;;;;;;;2.55;74.84;96109.13;5039152;28;20036;-76
2022/11/27 04:02:43;;;;;;;76.50;33.65;;;;;;;2.95;75.03;96186.72;5049129;28;20064;-76
2022/11/27 04:05:09;;;;;;;72.25;31.42;;;;;;;2.82;74.77;96159.72;5054513;28;20029;-76
2022/11/27 04:07:34;;;;;;;66.68;32.22;;;;;;;2.38;74.82;96085.13;5031210;28;20040;-76
2022/11/27 04:10:00;;;;;;;75.43;32.35;;;;;;;2.68;74.62;96133.50;5049461;28;20029;-76
2022/11/27 04:12:25;;;;;;;65.57;29.45;;;;;;;2.81;74.27;96161.53;5048955;28;20053;-76
2022/11/27 04:14:51;;;;;;;65.03;31.15;;;;;;;2.28;74.51;96076.88;5049256;28;20246;-75
2022/11/27 04:17:16;;;;;;;74.55;34.22;;;;;;;2.48;74.77;96118.78;5031130;28;20029;-75
2022/11/27 04:19:41;;;;;;;71.70;33.33;;;;;;;2.74;74.30;96131.09;5049262;28;20407;-76
2022/11/27 04:22:07;;;;;;;69.85;31.15;;;;;;;2.77;74.13;96135.91;5049083;28;20167;-76
2022/11/27 04:24:32;;;;;;;74.95;32.50;;;;;;;3.00;73.98;96184.28;5049177;28;20518;-76
2022/11/27 04:26:57;;;;;;;64.72;30.77;;;;;;;3.06;73.98;96178.25;5064284;28;20033;-75
2022/11/27 04:29:23;;;;;;;70.93;30.90;;;;;;;2.58;73.92;96108.72;5049016;28;20511;-76
2022/11/27 04:31:48;;;;;;;72.07;32.45;;;;;;;2.66;73.74;96111.16;5031257;28;20123;-76
2022/11/27 04:34:14;;;;;;;67.10;30.73;;;;;;;2.85;73.70;96148.81;5049034;28;20442;-76
2022/11/27 04:36:40;;;;;;;65.65;30.35;;;;;;;2.91;74.00;96172.38;5030842;28;20499;-76
2022/11/27 04:39:06;;;;;;;53.75;28.33;;;;;;;2.36;75.42;96163.06;5049020;28;20087;-76
2022/11/27 04:41:31;;;;;;;66.68;29.30;;;;;;;1.85;75.96;96092.88;5049199;28;20569;-75
2022/11/27 04:43:57;;;;;;;58.85;28.40;;;;;;;2.47;76.06;96203.56;5030327;28;20045;-75
2022/11/27 04:46:22;;;;;;;65.32;29.95;;;;;;;2.30;76.00;96167.28;5031972;28;20115;-75
2022/11/27 04:48:47;;;;;;;64.82;31.73;;;;;;;2.22;75.66;96148.31;5052301;28;20032;-75
2022/11/27 04:51:13;;;;;;;63.90;29.55;;;;;;;2.68;75.16;96191.13;5052208;28;20045;-75
2022/11/27 04:53:38;;;;;;;61.67;29.17;;;;;;;2.75;75.18;96190.34;5052453;28;20406;-75
2022/11/27 04:56:04;;;;;;;69.20;29.40;;;;;;;2.64;75.44;96199.56;5052585;28;20041;-75
2022/11/27 04:58:29;;;;;;;58.55;28.30;;;;;;;2.15;76.29;96176.28;5052356;28;20037;-75
2022/11/27 05:00:54;;;;;;;60.50;29.65;;;;;;;1.69;78.09;96160.41;5052245;28;20104;-75
2022/11/27 05:03:20;;;;;;;67.70;30.25;;;;;;;1.72;77.81;96142.53;5033755;28;20036;-76
2022/11/27 05:05:53;;;;;;;56.28;28.48;;;;;;;1.77;78.87;96183.78;5034439;28;20124;-76
2022/11/27 05:08:18;;;;;;;70.50;31.45;;;;;;;1.28;78.62;96084.59;5052072;28;20044;-76
2022/11/27 05:10:45;;;;;;;62.45;30.90;;;;;;;1.87;78.15;96137.16;5052192;28;20747;-75
2022/11/27 05:13:11;;;;;;;69.38;31.27;;;;;;;2.29;77.19;96186.59;5033654;28;20044;-76
2022/11/27 05:15:36;;;;;;;66.18;30.55;;;;;;;2.33;77.08;96181.78;5051556;28;20832;-75
2022/11/27 05:18:01;;;;;;;63.35;30.33;;;;;;;2.29;77.23;96191.81;5052422;28;20112;-76
2022/11/27 05:20:27;;;;;;;66.65;29.67;;;;;;;2.04;78.64;96203.84;5033900;28;20102;-76
2022/11/27 05:22:52;;;;;;;66.85;31.02;;;;;;;2.01;78.15;96195.56;5051821;28;20040;-75
2022/11/27 05:25:18;;;;;;;71.68;31.15;;;;;;;2.05;78.30;96194.19;5051668;28;20044;-75
2022/11/27 05:27:43;;;;;;;63.50;30.92;;;;;;;2.00;78.73;96205.22;5052146;28;20051;-75
2022/11/27 05:30:09;;;;;;;70.40;32.65;;;;;;;2.13;78.45;96207.09;5034015;28;20071;-76
2022/11/27 05:32:34;;;;;;;72.13;30.83;;;;;;;1.73;78.21;96141.53;5051435;28;20515;-76
2022/11/27 05:34:59;;;;;;;69.80;31.98;;;;;;;2.29;78.14;96215.38;5051265;28;20080;-76
2022/11/27 05:37:25;;;;;;;72.40;30.67;;;;;;;2.42;77.53;96211.22;5052103;28;20119;-76
2022/11/27 05:39:50;;;;;;;68.45;31.48;;;;;;;2.39;77.21;96211.59;5051962;28;20041;-76
2022/11/27 05:42:16;;;;;;;61.55;29.75;;;;;;;2.26;76.76;96178.34;5051496;28;20068;-76
2022/11/27 05:44:41;;;;;;;69.45;30.65;;;;;;;2.54;76.68;96207.00;5050885;28;20499;-76
2022/11/27 05:47:06;;;;;;;66.50;30.95;;;;;;;1.80;76.42;96113.59;5033647;28;20071;-75
2022/11/27 05:49:32;;;;;;;60.08;29.20;;;;;;;2.33;76.57;96213.19;5066801;28;20423;-76
2022/11/27 05:51:57;;;;;;;70.75;30.88;;;;;;;2.02;76.58;96126.53;5033369;28;20443;-76
2022/11/27 05:54:23;;;;;;;60.28;29.77;;;;;;;2.02;76.44;96143.03;5051060;28;20761;-76
2022/11/27 05:56:48;;;;;;;67.18;30.83;;;;;;;2.51;76.50;96210.03;5031384;28;20572;-76
2022/11/27 05:59:14;;;;;;;65.43;28.98;;;;;;;2.58;76.12;96209.03;5032214;28;20178;-76
2022/11/27 06:01:40;;;;;;;72.97;31.05;;;;;;;2.40;75.65;96174.75;5051393;28;20036;-76
2022/11/27 06:04:05;;;;;;;67.63;30.50;;;;;;;2.29;75.41;96152.56;5033305;28;20107;-76
2022/11/27 06:06:31;;;;;;;66.43;31.77;;;;;;;2.49;75.06;96178.00;5050474;28;20403;-76
2022/11/27 06:08:56;;;;;;;66.38;31.42;;;;;;;2.31;74.81;96155.78;5033041;28;20466;-76
2022/11/27 06:11:22;;;;;;;72.47;32.25;;;;;;;2.44;74.69;96159.47;5050772;28;20037;-76
2022/11/27 06:13:48;;;;;;;67.95;31.13;;;;;;;2.51;74.54;96165.53;5051317;28;20044;-76
2022/11/27 06:16:19;;;;;;;71.13;31.30;;;;;;;2.83;74.22;96222.38;5032505;28;20041;-76
2022/11/27 06:18:49;;;;;;;62.40;29.55;;;;;;;2.80;74.13;96214.91;5032840;28;20045;-75
2022/11/27 06:21:14;;;;;;;62.67;29.98;;;;;;;2.84;74.12;96231.84;5032815;28;20465;-76
2022/11/27 06:23:41;;;;;;;62.58;31.20;;;;;;;2.67;74.30;96230.63;5051097;28;20102;-76
2022/11/27 06:26:13;;;;;;;63.08;30.58;;;;;;;2.77;74.21;96241.50;5013972;28;20075;-76
2022/11/27 06:28:39;;;;;;;61.95;29.73;;;;;;;2.71;73.87;96216.91;5050384;28;20040;-76
2022/11/27 06:31:16;;;;;;;63.97;30.48;;;;;;;2.62;74.20;96186.69;5050950;28;20094;-75
2022/11/27 06:33:42;;;;;;;66.10;30.20;;;;;;;2.55;74.57;96185.84;5050356;28;20059;-75
2022/11/27 06:36:08;;;;;;;61.40;29.55;;;;;;;2.78;74.01;96230.03;5050026;28;20037;-74
2022/11/27 06:38:35;;;;;;;58.03;28.33;;;;;;;2.35;73.94;96151.00;5050210;28;20541;-75
2022/11/27 06:41:12;;;;;;;63.30;29.52;;;;;;;2.82;73.71;96199.00;5032185;28;20538;-75
2022/11/27 06:43:38;;;;;;;69.18;30.60;;;;;;;2.27;73.84;96128.41;5032106;28;20091;-75
2022/11/27 06:46:05;;;;;;;68.93;31.67;;;;;;;2.73;73.93;96187.91;5050269;28;20507;-75
2022/11/27 06:48:32;;;;;;;70.35;32.38;;;;;;;3.08;73.73;96244.38;5050162;28;20071;-74
2022/11/27 06:51:01;;;;;;;64.43;32.42;;;;;;;2.90;72.88;96220.56;5049910;28;20484;-75
2022/11/27 06:53:28;;;;;;;71.15;32.15;;;;;;;3.18;73.16;96240.56;5033219;28;20098;-76
2022/11/27 06:55:55;;;;;;;73.13;32.53;;;;;;;3.15;72.66;96235.69;5049778;28;20036;-75
2022/11/27 06:58:21;;;;;;;61.33;30.10;;;;;;;2.33;72.90;96139.91;5049909;28;20025;-75
2022/11/27 07:00:46;;;;;;;64.25;30.58;;;;;;;2.70;73.11;96199.59;5050185;28;20039;-75
2022/11/27 07:03:11;;;;;;;61.10;30.75;;;;;;;2.48;72.77;96163.28;5031919;28;20060;-75
2022/11/27 07:05:37;;;;;;;72.85;33.85;;;;;;;3.02;72.80;96239.94;5031713;28;20541;-75
2022/11/27 07:08:03;;;;;;;65.72;31.05;;;;;;;2.72;72.90;96212.50;5049329;28;20886;-75
2022/11/27 07:10:28;;;;;;;70.25;32.42;;;;;;;3.13;72.88;96230.66;5049286;28;20063;-75
2022/11/27 07:12:54;;;;;;;65.30;30.95;;;;;;;2.54;72.51;96125.81;5049817;28;20554;-75
2022/11/27 07:15:19;;;;;;;72.78;34.22;;;;;;;3.32;72.41;96229.88;5031477;28;20132;-75
2022/11/27 07:17:44;;;;;;;67.18;33.75;;;;;;;3.23;72.22;96217.97;5049344;28;20094;-75
2022/11/27 07:20:10;;;;;;;77.47;33.63;;;;;;;3.17;72.00;96197.81;5031949;28;20051;-75
2022/11/27 07:22:36;;;;;;;73.28;33.00;;;;;;;3.10;72.13;96176.03;5049825;28;20044;-75
2022/11/27 07:25:01;;;;;;;68.28;33.05;;;;;;;3.22;71.58;96179.63;5049863;28;20033;-75
2022/11/27 07:27:26;;;;;;;65.15;33.13;;;;;;;3.58;71.63;96229.03;5031464;28;20182;-75
2022/11/27 07:29:52;;;;;;;68.13;34.03;;;;;;;3.66;71.30;96222.78;5049381;28;20424;-76
2022/11/27 07:32:17;;;;;;;68.30;33.53;;;;;;;3.76;71.37;96228.38;5049413;28;20116;-75
2022/11/27 07:34:43;;;;;;;65.10;31.95;;;;;;;3.82;71.25;96227.56;5049526;28;20045;-75
2022/11/27 07:37:08;;;;;;;72.38;34.22;;;;;;;3.90;70.84;96227.34;5049631;28;20044;-75
2022/11/27 07:39:34;;;;;;;66.43;32.53;;;;;;;3.65;70.40;96180.00;5031024;28;20048;-75
2022/11/27 07:41:59;;;;;;;69.90;33.42;;;;;;;3.44;70.54;96138.25;5049620;28;20037;-75
2022/11/27 07:44:24;;;;;;;65.55;34.50;;;;;;;3.29;70.12;96159.47;5031121;28;20053;-75
2022/11/27 07:46:50;;;;;;;73.38;35.45;;;;;;;3.41;70.13;96138.69;5031904;28;20135;-75
2022/11/27 07:49:15;;;;;;;69.70;34.75;;;;;;;3.51;70.49;96154.78;5049260;28;20045;-75
2022/11/27 07:51:41;;;;;;;76.90;36.08;;;;;;;3.92;70.31;96220.06;5031354;28;20044;-76
2022/11/27 07:54:06;;;;;;;70.25;33.65;;;;;;;3.39;69.58;96135.47;5031366;28;20106;-76
2022/11/27 07:56:31;;;;;;;75.43;35.58;;;;;;;3.39;69.99;96162.50;5049699;28;20037;-76
2022/11/27 07:58:57;;;;;;;71.82;34.80;;;;;;;3.44;69.53;96138.25;5030719;28;20052;-76
2022/11/27 08:01:23;;;;;;;75.10;36.15;;;;;;;3.71;69.96;96180.97;5049707;28;20759;-75
2022/11/27 08:03:48;;;;;;;76.68;35.42;;;;;;;3.62;70.34;96190.09;5049255;28;20470;-76
2022/11/27 08:06:17;;;;;;;64.68;33.80;;;;;;;3.98;70.18;96216.63;5030987;28;20537;-76
2022/11/27 08:08:42;;;;;;;77.93;34.15;;;;;;;3.84;69.65;96188.81;5031201;28;20049;-76
2022/11/27 08:11:22;;;;;;;72.00;35.53;;;;;;;4.07;69.72;96225.88;5048895;28;20033;-76
2022/11/27 08:13:49;;;;;;;79.97;37.30;;;;;;;3.72;69.61;96151.94;5031255;28;20071;-76
2022/11/27 08:16:14;;;;;;;70.57;37.78;;;;;;;3.91;69.88;96171.22;5049337;28;20651;-75
2022/11/27 08:18:40;;;;;;;71.93;37.47;;;;;;;4.06;69.38;96197.22;5030998;28;20033;-76
2022/11/27 08:21:06;;;;;;;89.30;39.15;;;;;;;3.38;69.47;96074.34;5049368;28;20484;-76
2022/11/27 08:23:31;;;;;;;83.88;40.65;;;;;;;3.80;69.10;96140.41;5052996;28;20033;-76
2022/11/27 08:25:57;;;;;;;79.35;39.30;;;;;;;4.33;69.08;96226.81;5034954;28;20059;-76
2022/11/27 08:28:22;;;;;;;80.65;39.08;;;;;;;4.27;68.88;96205.59;5052827;28;20680;-76
2022/11/27 08:30:58;;;;;;;84.25;39.08;;;;;;;4.32;69.33;96219.94;5052161;28;20037;-76
2022/11/27 08:33:23;;;;;;;76.00;39.17;;;;;;;4.39;68.98;96218.09;5052792;28;20512;-76
2022/11/27 08:35:49;;;;;;;76.70;38.40;;;;;;;4.14;69.01;96192.53;5052631;28;20040;-76
2022/11/27 08:38:15;;;;;;;88.82;42.35;;;;;;;4.02;69.66;96160.09;5052762;28;20426;-75
2022/11/27 08:40:40;;;;;;;82.00;42.03;;;;;;;4.28;70.18;96209.03;5052628;28;20044;-76
2022/11/27 08:43:06;;;;;;;81.13;43.22;;;;;;;4.30;69.62;96191.25;5034612;28;20507;-76
2022/11/27 08:45:31;;;;;;;79.78;43.08;;;;;;;4.51;69.44;96203.28;5052386;28;20392;-76
2022/11/27 08:47:57;;;;;;;90.05;43.80;;;;;;;4.17;69.43;96155.38;5052531;28;20041;-76
2022/11/27 08:50:23;;;;;;;85.72;43.65;;;;;;;4.26;69.35;96164.63;5052242;28;20033;-76
2022/11/27 08:52:48;;;;;;;88.35;42.60;;;;;;;4.66;69.17;96209.84;5034421;28;20041;-76
2022/11/27 08:55:14;;;;;;;93.60;43.50;;;;;;;4.15;68.79;96115.41;5052439;28;20094;-76
2022/11/27 08:57:39;;;;;;;92.72;45.65;;;;;;;4.24;68.96;96119.38;5052606;28;20045;-75
2022/11/27 09:00:06;;;;;;;95.72;47.85;;;;;;;4.46;69.08;96156.63;5034565;28;20033;-76
2022/11/27 09:02:33;;;;;;;105.10;51.60;;;;;;;3.89;68.69;96063.84;5034089;28;20041;-76
2022/11/27 09:04:58;;;;;;;100.03;48.30;;;;;;;4.85;69.02;96199.44;5052242;28;20033;-76
2022/11/27 09:07:24;;;;;;;104.93;49.80;;;;;;;4.74;68.43;96166.75;5034051;28;20495;-76
2022/11/27 09:09:49;;;;;;;109.85;53.00;;;;;;;5.00;68.30;96194.69;5052101;28;20047;-76
2022/11/27 09:12:15;;;;;;;99.43;48.70;;;;;;;5.05;68.44;96186.94;5051735;28;20537;-75
2022/11/27 09:14:40;;;;;;;99.45;50.10;;;;;;;5.12;67.52;96192.97;5051578;28;20037;-75
2022/11/27 09:17:06;;;;;;;105.90;54.55;;;;;;;5.12;67.35;96192.16;5052199;28;20416;-75
2022/11/27 09:19:31;;;;;;;104.13;51.63;;;;;;;5.01;68.18;96198.94;5051981;28;20072;-75
2022/11/27 09:21:56;;;;;;;100.18;50.90;;;;;;;5.05;67.59;96169.34;5033151;28;20048;-75
2022/11/27 09:24:22;;;;;;;96.95;49.20;;;;;;;5.09;67.52;96166.31;5051926;28;20037;-75
2022/11/27 09:26:47;;;;;;;81.55;41.67;;;;;;;5.26;67.03;96170.81;5033669;28;20106;-75
2022/11/27 09:29:13;;;;;;;76.57;40.58;;;;;;;4.92;67.40;96110.81;5051992;28;20079;-75
2022/11/27 09:31:38;;;;;;;76.53;39.83;;;;;;;5.09;67.31;96125.06;5033267;28;20040;-75
2022/11/27 09:34:04;;;;;;;84.32;42.22;;;;;;;5.39;67.51;96169.88;5050756;28;20056;-75
2022/11/27 09:36:30;;;;;;;98.78;44.25;;;;;;;5.31;67.38;96147.28;5051551;28;20043;-75
2022/11/27 09:38:58;;;;;;;87.57;44.88;;;;;;;5.38;67.78;96169.09;5051723;28;20429;-75
2022/11/27 09:41:57;;;;;;;97.63;42.90;;;;;;;5.32;67.05;96143.66;5051770;28;20048;-76
2022/11/27 09:44:47;;;;;;;86.47;43.40;;;;;;;5.54;66.63;96172.97;5039902;28;20067;-76
2022/11/27 09:47:31;;;;;;;72.70;39.33;;;;;;;5.70;66.95;96156.63;5036161;28;20474;-76
2022/11/27 09:50:02;;;;;;;74.05;38.55;;;;;;;5.55;66.25;96115.91;5051296;28;20430;-76
2022/11/27 09:52:46;;;;;;;85.25;42.63;;;;;;;5.67;65.96;96138.63;5050963;28;20041;-76
2022/11/27 09:55:33;;;;;;;87.68;43.95;;;;;;;5.79;66.20;96150.06;5051145;28;20124;-76
2022/11/27 09:58:39;;;;;;;94.25;44.72;;;;;;;5.61;65.76;96117.66;5033266;28;20041;-76
2022/11/27 10:01:17;;;;;;;83.95;44.78;;;;;;;5.96;66.07;96144.19;5041038;28;20053;-75
2022/11/27 10:03:44;;;;;;;94.57;47.67;;;;;;;5.95;65.82;96124.19;5051029;28;20461;-75
2022/11/27 10:06:41;;;;;;;83.07;42.25;;;;;;;6.19;65.04;96129.31;5050946;28;20029;-75
2022/11/27 10:09:21;;;;;;;85.32;42.13;;;;;;;4.83;65.76;95922.88;5051186;28;20064;-75
2022/11/27 10:11:58;;;;;;;94.47;46.97;;;;;;;6.22;65.29;96136.00;5032874;28;20522;-75
2022/11/27 10:14:35;;;;;;;92.90;47.83;;;;;;;6.24;65.37;96123.41;5050333;28;20144;-76
2022/11/27 10:17:09;;;;;;;91.88;48.33;;;;;;;6.41;65.16;96119.09;5018656;28;20041;-75
2022/11/27 10:19:50;;;;;;;84.38;43.70;;;;;;;6.07;64.64;96081.06;5050712;28;20049;-76
2022/11/27 10:22:19;;;;;;;92.47;43.55;;;;;;;6.36;64.76;96115.53;5050754;28;20101;-75
2022/11/27 10:25:10;;;;;;;84.50;43.42;;;;;;;6.55;64.35;96111.81;5050460;28;20112;-75
2022/11/27 10:27:44;;;;;;;85.50;44.60;;;;;;;6.41;64.59;96073.50;5032540;28;20037;-75
2022/11/27 10:30:15;;;;;;;91.85;47.03;;;;;;;6.67;63.99;96098.66;5050352;28;20052;-75
2022/11/27 10:32:41;;;;;;;95.07;48.47;;;;;;;6.42;63.67;96036.38;5050512;28;20033;-75
2022/11/27 10:35:16;;;;;;;88.10;44.38;;;;;;;6.87;63.92;96088.59;5049439;28;20040;-76
2022/11/27 10:37:49;;;;;;;82.70;42.92;;;;;;;6.37;63.43;96006.50;5032832;28;20051;-75
2022/11/27 10:40:22;;;;;;;87.40;42.08;;;;;;;6.62;63.78;96043.19;5050706;28;20051;-76
2022/11/27 10:43:09;;;;;;;94.90;47.88;;;;;;;5.71;63.83;95908.22;5050209;28;20033;-76
2022/11/27 10:45:43;;;;;;;94.30;44.78;;;;;;;6.79;64.47;96081.81;5049628;28;20132;-76
2022/11/27 10:48:10;;;;;;;89.97;45.15;;;;;;;6.56;64.28;96052.81;5050581;28;20462;-76
2022/11/27 10:50:36;;;;;;;87.65;45.40;;;;;;;6.22;65.00;96014.81;5050270;28;20451;-76
2022/11/27 10:53:34;;;;;;;87.65;44.25;;;;;;;6.64;64.52;96052.47;5050122;28;20037;-76
2022/11/27 10:56:18;;;;;;;91.68;44.47;;;;;;;6.42;63.77;96015.31;5033205;28;20048;-76
2022/11/27 10:58:56;;;;;;;88.55;44.40;;;;;;;6.54;63.86;96017.97;5050014;28;20041;-75
2022/11/27 11:01:24;;;;;;;89.13;44.05;;;;;;;6.39;63.65;96018.41;5049612;28;20103;-75
2022/11/27 11:03:50;;;;;;;89.30;45.45;;;;;;;6.77;63.36;96062.00;5050057;28;20526;-76
2022/11/27 11:06:22;;;;;;;100.72;44.22;;;;;;;6.49;62.61;95999.41;5031848;28;20037;-76
2022/11/27 11:09:01;;;;;;;75.28;38.35;;;;;;;6.45;62.43;95998.25;5050102;28;20490;-75
2022/11/27 11:11:26;;;;;;;79.68;36.20;;;;;;;6.55;62.39;95996.69;5031831;28;20575;-75
2022/11/27 11:13:53;;;;;;;88.53;39.30;;;;;;;6.81;62.81;96056.03;5031910;28;20136;-75
2022/11/27 11:16:26;;;;;;;75.43;36.03;;;;;;;6.47;64.33;96044.44;5049012;28;20102;-76
2022/11/27 11:18:53;;;;;;;76.93;38.33;;;;;;;5.90;63.56;95921.31;5024438;28;20067;-75
2022/11/27 11:21:37;;;;;;;73.68;39.13;;;;;;;6.73;63.42;96052.94;5031873;28;20045;-76
2022/11/27 11:24:05;;;;;;;71.13;35.33;;;;;;;6.66;63.57;96050.41;5031851;28;20033;-76
2022/11/27 11:26:36;;;;;;;71.32;36.67;;;;;;;6.30;63.96;95996.06;5049134;28;20420;-75
2022/11/27 11:29:06;;;;;;;75.15;36.50;;;;;;;6.50;64.93;96038.69;5049742;28;20115;-75
2022/11/27 11:31:36;;;;;;;89.93;37.90;;;;;;;6.52;64.32;96020.84;5049327;28;20526;-75
2022/11/27 11:34:13;;;;;;;85.07;36.17;;;;;;;6.31;63.27;95979.22;5049684;28;20048;-75